sensor_id;sensor_type;location;lat;lon;timestamp;temperature;humidity
18597;DHT22;9428;50.950;6.912;2023-03-23T00:01:28;13.30;99.90
18597;DHT22;9428;50.950;6.912;2023-03-23T00:04:17;13.20;99.90
18597;DHT22;9428;50.950;6.912;2023-03-23T00:07:06;13.20;99.90
18597;DHT22;9428;50.950;6.912;2023-03-23T00:09:53;13.20;99.90
18597;DHT22;9428;50.950;6.912;2023-03-23T00:12:41;13.20;99.90
18597;DHT22;9428;50.950;6.912;2023-03-23T00:15:30;13.20;99.90
18597;DHT22;9428;50.950;6.912;2023-03-23T00:18:19;13.10;99.90
18597;DHT22;9428;50.950;6.912;2023-03-23T00:21:09;13.40;99.90
18597;DHT22;9428;50.950;6.912;2023-03-23T00:23:58;13.10;99.90
18597;DHT22;9428;50.950;6.912;2023-03-23T00:26:47;13.20;99.90
18597;DHT22;9428;50.950;6.912;2023-03-23T00:29:37;13.20;99.90
18597;DHT22;9428;50.950;6.912;2023-03-23T00:32:25;13.20;99.90
18597;DHT22;9428;50.950;6.912;2023-03-23T00:35:14;13.20;99.90
18597;DHT22;9428;50.950;6.912;2023-03-23T00:38:01;13.10;99.90
18597;DHT22;9428;50.950;6.912;2023-03-23T00:40:52;13.20;99.90
18597;DHT22;9428;50.950;6.912;2023-03-23T00:43:39;13.20;99.90
18597;DHT22;9428;50.950;6.912;2023-03-23T00:46:28;13.20;99.90
18597;DHT22;9428;50.950;6.912;2023-03-23T00:49:20;13.20;99.90
18597;DHT22;9428;50.950;6.912;2023-03-23T00:52:10;13.70;99.90
18597;DHT22;9428;50.950;6.912;2023-03-23T00:54:58;13.20;99.90
18597;DHT22;9428;50.950;6.912;2023-03-23T00:57:46;13.20;99.90
18597;DHT22;9428;50.950;6.912;2023-03-23T01:00:36;13.30;99.90
18597;DHT22;9428;50.950;6.912;2023-03-23T01:03:24;13.60;99.90
18597;DHT22;9428;50.950;6.912;2023-03-23T01:06:11;13.20;99.90
18597;DHT22;9428;50.950;6.912;2023-03-23T01:08:59;13.20;99.90
18597;DHT22;9428;50.950;6.912;2023-03-23T01:11:47;13.10;99.90
18597;DHT22;9428;50.950;6.912;2023-03-23T01:14:36;13.40;99.90
18597;DHT22;9428;50.950;6.912;2023-03-23T01:17:24;13.20;99.90
18597;DHT22;9428;50.950;6.912;2023-03-23T01:20:13;13.10;99.90
18597;DHT22;9428;50.950;6.912;2023-03-23T01:23:00;13.20;99.90
18597;DHT22;9428;50.950;6.912;2023-03-23T01:25:48;13.20;99.90
18597;DHT22;9428;50.950;6.912;2023-03-23T01:28:36;13.40;99.90
18597;DHT22;9428;50.950;6.912;2023-03-23T01:31:25;13.10;99.90
18597;DHT22;9428;50.950;6.912;2023-03-23T01:34:12;13.10;99.90
18597;DHT22;9428;50.950;6.912;2023-03-23T01:37:00;13.40;99.90
18597;DHT22;9428;50.950;6.912;2023-03-23T01:39:47;13.20;99.90
18597;DHT22;9428;50.950;6.912;2023-03-23T01:42:36;13.10;99.90
18597;DHT22;9428;50.950;6.912;2023-03-23T01:45:30;13.10;99.90
18597;DHT22;9428;50.950;6.912;2023-03-23T01:48:23;13.10;99.90
18597;DHT22;9428;50.950;6.912;2023-03-23T01:51:13;12.90;99.90
18597;DHT22;9428;50.950;6.912;2023-03-23T01:54:03;12.90;99.90
18597;DHT22;9428;50.950;6.912;2023-03-23T01:56:54;12.80;99.90
18597;DHT22;9428;50.950;6.912;2023-03-23T01:59:45;12.90;99.90
18597;DHT22;9428;50.950;6.912;2023-03-23T02:02:34;12.90;99.90
18597;DHT22;9428;50.950;6.912;2023-03-23T02:05:28;12.80;99.90
18597;DHT22;9428;50.950;6.912;2023-03-23T02:08:18;12.80;99.90
18597;DHT22;9428;50.950;6.912;2023-03-23T02:11:12;12.70;99.90
18597;DHT22;9428;50.950;6.912;2023-03-23T02:13:59;12.80;99.90
18597;DHT22;9428;50.950;6.912;2023-03-23T02:16:51;12.70;99.90
18597;DHT22;9428;50.950;6.912;2023-03-23T02:19:56;12.80;99.90
18597;DHT22;9428;50.950;6.912;2023-03-23T02:23:07;12.80;99.90
18597;DHT22;9428;50.950;6.912;2023-03-23T02:26:03;12.70;99.90
18597;DHT22;9428;50.950;6.912;2023-03-23T02:32:46;12.70;99.90
18597;DHT22;9428;50.950;6.912;2023-03-23T02:35:44;12.80;99.90
18597;DHT22;9428;50.950;6.912;2023-03-23T02:38:35;12.70;99.90
18597;DHT22;9428;50.950;6.912;2023-03-23T02:41:27;12.70;99.90
18597;DHT22;9428;50.950;6.912;2023-03-23T02:44:15;12.70;99.90
18597;DHT22;9428;50.950;6.912;2023-03-23T02:47:06;12.60;99.90
18597;DHT22;9428;50.950;6.912;2023-03-23T02:49:55;12.60;99.90
18597;DHT22;9428;50.950;6.912;2023-03-23T02:52:48;12.60;99.90
18597;DHT22;9428;50.950;6.912;2023-03-23T02:55:38;12.60;99.90
18597;DHT22;9428;50.950;6.912;2023-03-23T02:58:28;12.60;99.90
18597;DHT22;9428;50.950;6.912;2023-03-23T03:01:46;12.60;99.90
18597;DHT22;9428;50.950;6.912;2023-03-23T03:04:36;12.60;99.90
18597;DHT22;9428;50.950;6.912;2023-03-23T03:07:35;12.80;99.90
18597;DHT22;9428;50.950;6.912;2023-03-23T03:10:26;12.80;99.90
18597;DHT22;9428;50.950;6.912;2023-03-23T03:13:23;12.60;99.90
18597;DHT22;9428;50.950;6.912;2023-03-23T03:16:18;12.60;99.90
18597;DHT22;9428;50.950;6.912;2023-03-23T03:19:11;12.60;99.90
18597;DHT22;9428;50.950;6.912;2023-03-23T03:22:00;12.60;99.90
18597;DHT22;9428;50.950;6.912;2023-03-23T03:24:48;12.60;99.90
18597;DHT22;9428;50.950;6.912;2023-03-23T03:27:40;12.90;99.90
18597;DHT22;9428;50.950;6.912;2023-03-23T03:30:30;12.60;99.90
18597;DHT22;9428;50.950;6.912;2023-03-23T03:33:21;12.40;99.90
18597;DHT22;9428;50.950;6.912;2023-03-23T03:36:16;12.70;99.90
18597;DHT22;9428;50.950;6.912;2023-03-23T03:39:05;12.70;99.90
18597;DHT22;9428;50.950;6.912;2023-03-23T03:41:53;12.70;99.90
18597;DHT22;9428;50.950;6.912;2023-03-23T03:44:42;12.70;99.90
18597;DHT22;9428;50.950;6.912;2023-03-23T03:47:30;12.70;99.90
18597;DHT22;9428;50.950;6.912;2023-03-23T03:50:17;12.70;99.90
18597;DHT22;9428;50.950;6.912;2023-03-23T03:53:04;12.70;99.90
18597;DHT22;9428;50.950;6.912;2023-03-23T03:55:52;12.70;99.90
18597;DHT22;9428;50.950;6.912;2023-03-23T03:58:41;12.70;99.90
18597;DHT22;9428;50.950;6.912;2023-03-23T04:01:29;12.70;99.90
18597;DHT22;9428;50.950;6.912;2023-03-23T04:04:17;12.60;99.90
18597;DHT22;9428;50.950;6.912;2023-03-23T04:07:04;12.60;99.90
18597;DHT22;9428;50.950;6.912;2023-03-23T04:09:51;12.50;99.90
18597;DHT22;9428;50.950;6.912;2023-03-23T04:12:39;12.70;99.90
18597;DHT22;9428;50.950;6.912;2023-03-23T04:15:26;12.70;99.90
18597;DHT22;9428;50.950;6.912;2023-03-23T04:18:16;12.70;99.90
18597;DHT22;9428;50.950;6.912;2023-03-23T04:21:04;12.70;99.90
18597;DHT22;9428;50.950;6.912;2023-03-23T04:23:53;12.70;99.90
18597;DHT22;9428;50.950;6.912;2023-03-23T04:26:40;12.70;99.90
18597;DHT22;9428;50.950;6.912;2023-03-23T04:29:28;13.30;99.90
18597;DHT22;9428;50.950;6.912;2023-03-23T04:32:16;12.90;99.90
18597;DHT22;9428;50.950;6.912;2023-03-23T04:35:05;12.60;99.90
18597;DHT22;9428;50.950;6.912;2023-03-23T04:37:53;12.60;99.90
18597;DHT22;9428;50.950;6.912;2023-03-23T04:40:42;12.60;99.90
18597;DHT22;9428;50.950;6.912;2023-03-23T04:43:30;13.00;99.90
18597;DHT22;9428;50.950;6.912;2023-03-23T04:46:18;13.00;99.90
18597;DHT22;9428;50.950;6.912;2023-03-23T04:49:07;13.40;99.90
18597;DHT22;9428;50.950;6.912;2023-03-23T04:51:56;12.60;99.90
18597;DHT22;9428;50.950;6.912;2023-03-23T04:54:43;12.70;99.90
18597;DHT22;9428;50.950;6.912;2023-03-23T04:57:31;12.90;99.90
18597;DHT22;9428;50.950;6.912;2023-03-23T05:00:19;12.60;99.90
18597;DHT22;9428;50.950;6.912;2023-03-23T05:03:06;12.60;99.90
18597;DHT22;9428;50.950;6.912;2023-03-23T05:05:55;12.60;99.90
18597;DHT22;9428;50.950;6.912;2023-03-23T05:08:44;12.60;99.90
18597;DHT22;9428;50.950;6.912;2023-03-23T05:11:31;12.60;99.90
18597;DHT22;9428;50.950;6.912;2023-03-23T05:14:18;13.00;99.90
18597;DHT22;9428;50.950;6.912;2023-03-23T05:17:07;12.70;99.90
18597;DHT22;9428;50.950;6.912;2023-03-23T05:19:54;12.70;99.90
18597;DHT22;9428;50.950;6.912;2023-03-23T05:22:42;12.70;99.90
18597;DHT22;9428;50.950;6.912;2023-03-23T05:25:32;12.60;99.90
18597;DHT22;9428;50.950;6.912;2023-03-23T05:28:22;12.60;99.90
18597;DHT22;9428;50.950;6.912;2023-03-23T05:31:09;12.70;99.90
18597;DHT22;9428;50.950;6.912;2023-03-23T05:33:56;12.70;99.90
18597;DHT22;9428;50.950;6.912;2023-03-23T05:36:44;12.80;99.90
18597;DHT22;9428;50.950;6.912;2023-03-23T05:39:32;13.30;99.90
18597;DHT22;9428;50.950;6.912;2023-03-23T05:42:21;12.60;99.90
18597;DHT22;9428;50.950;6.912;2023-03-23T05:45:09;12.70;99.90
18597;DHT22;9428;50.950;6.912;2023-03-23T05:47:57;12.70;99.90
18597;DHT22;9428;50.950;6.912;2023-03-23T05:50:45;12.70;99.90
18597;DHT22;9428;50.950;6.912;2023-03-23T05:53:32;12.70;99.90
18597;DHT22;9428;50.950;6.912;2023-03-23T05:56:21;12.70;99.90
18597;DHT22;9428;50.950;6.912;2023-03-23T05:59:10;12.90;99.90
18597;DHT22;9428;50.950;6.912;2023-03-23T06:01:57;12.80;99.90
18597;DHT22;9428;50.950;6.912;2023-03-23T06:04:45;13.40;99.90
18597;DHT22;9428;50.950;6.912;2023-03-23T06:07:34;12.70;99.90
18597;DHT22;9428;50.950;6.912;2023-03-23T06:10:23;12.70;99.90
18597;DHT22;9428;50.950;6.912;2023-03-23T06:13:10;12.70;99.90
18597;DHT22;9428;50.950;6.912;2023-03-23T06:15:59;12.70;99.90
18597;DHT22;9428;50.950;6.912;2023-03-23T06:18:46;12.70;99.90
18597;DHT22;9428;50.950;6.912;2023-03-23T06:21:34;12.70;99.90
18597;DHT22;9428;50.950;6.912;2023-03-23T06:24:21;12.70;99.90
18597;DHT22;9428;50.950;6.912;2023-03-23T06:27:09;12.80;99.90
18597;DHT22;9428;50.950;6.912;2023-03-23T06:29:56;12.90;99.90
18597;DHT22;9428;50.950;6.912;2023-03-23T06:32:47;12.90;99.90
18597;DHT22;9428;50.950;6.912;2023-03-23T06:35:34;12.90;99.90
18597;DHT22;9428;50.950;6.912;2023-03-23T06:38:22;12.90;99.90
18597;DHT22;9428;50.950;6.912;2023-03-23T06:41:09;12.90;99.90
18597;DHT22;9428;50.950;6.912;2023-03-23T06:43:57;12.90;99.90
18597;DHT22;9428;50.950;6.912;2023-03-23T06:46:44;12.50;99.90
18597;DHT22;9428;50.950;6.912;2023-03-23T06:49:33;13.00;99.90
18597;DHT22;9428;50.950;6.912;2023-03-23T06:52:20;13.50;99.90
18597;DHT22;9428;50.950;6.912;2023-03-23T06:55:08;13.30;99.90
18597;DHT22;9428;50.950;6.912;2023-03-23T06:57:55;13.80;99.90
18597;DHT22;9428;50.950;6.912;2023-03-23T07:00:44;13.50;99.90
18597;DHT22;9428;50.950;6.912;2023-03-23T07:03:32;13.10;99.90
18597;DHT22;9428;50.950;6.912;2023-03-23T07:06:21;13.10;99.90
18597;DHT22;9428;50.950;6.912;2023-03-23T07:09:08;13.10;99.90
18597;DHT22;9428;50.950;6.912;2023-03-23T07:11:55;13.50;99.90
18597;DHT22;9428;50.950;6.912;2023-03-23T07:14:43;13.20;99.90
18597;DHT22;9428;50.950;6.912;2023-03-23T07:17:31;13.20;99.90
18597;DHT22;9428;50.950;6.912;2023-03-23T07:20:18;13.20;99.90
18597;DHT22;9428;50.950;6.912;2023-03-23T07:23:07;13.20;99.90
18597;DHT22;9428;50.950;6.912;2023-03-23T07:25:54;13.20;99.90
18597;DHT22;9428;50.950;6.912;2023-03-23T07:28:42;13.70;99.90
18597;DHT22;9428;50.950;6.912;2023-03-23T07:31:31;14.00;99.90
18597;DHT22;9428;50.950;6.912;2023-03-23T07:34:19;13.30;99.90
18597;DHT22;9428;50.950;6.912;2023-03-23T07:37:06;13.40;99.90
18597;DHT22;9428;50.950;6.912;2023-03-23T07:39:56;13.40;99.90
18597;DHT22;9428;50.950;6.912;2023-03-23T07:42:44;13.40;99.90
18597;DHT22;9428;50.950;6.912;2023-03-23T07:45:35;13.40;99.90
18597;DHT22;9428;50.950;6.912;2023-03-23T07:48:22;13.40;99.90
18597;DHT22;9428;50.950;6.912;2023-03-23T07:51:10;13.50;99.90
18597;DHT22;9428;50.950;6.912;2023-03-23T07:53:57;14.00;99.90
18597;DHT22;9428;50.950;6.912;2023-03-23T07:56:46;14.00;99.90
18597;DHT22;9428;50.950;6.912;2023-03-23T07:59:33;13.70;99.90
18597;DHT22;9428;50.950;6.912;2023-03-23T08:02:21;14.00;99.90
18597;DHT22;9428;50.950;6.912;2023-03-23T08:05:08;13.00;99.90
18597;DHT22;9428;50.950;6.912;2023-03-23T08:07:56;13.60;99.90
18597;DHT22;9428;50.950;6.912;2023-03-23T08:10:43;13.70;99.90
18597;DHT22;9428;50.950;6.912;2023-03-23T08:13:32;13.70;99.90
18597;DHT22;9428;50.950;6.912;2023-03-23T08:16:20;13.70;99.90
18597;DHT22;9428;50.950;6.912;2023-03-23T08:19:07;14.40;99.90
18597;DHT22;9428;50.950;6.912;2023-03-23T08:21:54;13.80;99.90
18597;DHT22;9428;50.950;6.912;2023-03-23T08:24:41;13.70;99.90
18597;DHT22;9428;50.950;6.912;2023-03-23T08:27:31;14.00;99.90
18597;DHT22;9428;50.950;6.912;2023-03-23T08:30:20;13.80;99.90
18597;DHT22;9428;50.950;6.912;2023-03-23T08:33:08;13.80;99.90
18597;DHT22;9428;50.950;6.912;2023-03-23T08:35:58;13.80;99.90
18597;DHT22;9428;50.950;6.912;2023-03-23T08:38:46;13.90;99.90
18597;DHT22;9428;50.950;6.912;2023-03-23T08:41:34;13.90;99.90
18597;DHT22;9428;50.950;6.912;2023-03-23T08:44:21;14.00;99.90
18597;DHT22;9428;50.950;6.912;2023-03-23T08:47:09;14.40;99.90
18597;DHT22;9428;50.950;6.912;2023-03-23T08:49:57;13.90;99.90
18597;DHT22;9428;50.950;6.912;2023-03-23T08:52:44;14.00;99.90
18597;DHT22;9428;50.950;6.912;2023-03-23T08:55:31;14.10;99.90
18597;DHT22;9428;50.950;6.912;2023-03-23T08:58:18;14.40;99.90
18597;DHT22;9428;50.950;6.912;2023-03-23T09:01:06;14.00;99.90
18597;DHT22;9428;50.950;6.912;2023-03-23T09:03:55;14.00;99.90
18597;DHT22;9428;50.950;6.912;2023-03-23T09:06:42;14.30;99.90
18597;DHT22;9428;50.950;6.912;2023-03-23T09:09:30;14.80;99.90
18597;DHT22;9428;50.950;6.912;2023-03-23T09:12:19;14.10;99.90
18597;DHT22;9428;50.950;6.912;2023-03-23T09:15:09;14.10;99.90
18597;DHT22;9428;50.950;6.912;2023-03-23T09:17:57;14.20;99.90
18597;DHT22;9428;50.950;6.912;2023-03-23T09:20:46;14.20;99.90
18597;DHT22;9428;50.950;6.912;2023-03-23T09:23:36;14.20;99.90
18597;DHT22;9428;50.950;6.912;2023-03-23T09:26:23;14.30;99.90
18597;DHT22;9428;50.950;6.912;2023-03-23T09:29:11;14.90;99.90
18597;DHT22;9428;50.950;6.912;2023-03-23T09:31:58;14.90;99.90
18597;DHT22;9428;50.950;6.912;2023-03-23T09:34:46;14.50;99.90
18597;DHT22;9428;50.950;6.912;2023-03-23T09:37:34;14.50;99.90
18597;DHT22;9428;50.950;6.912;2023-03-23T09:40:24;15.20;99.90
18597;DHT22;9428;50.950;6.912;2023-03-23T09:43:24;14.60;99.90
18597;DHT22;9428;50.950;6.912;2023-03-23T09:46:35;14.70;99.90
18597;DHT22;9428;50.950;6.912;2023-03-23T09:49:26;14.70;99.90
18597;DHT22;9428;50.950;6.912;2023-03-23T09:52:16;15.40;99.90
18597;DHT22;9428;50.950;6.912;2023-03-23T09:55:07;14.80;99.90
18597;DHT22;9428;50.950;6.912;2023-03-23T09:57:59;14.70;99.90
18597;DHT22;9428;50.950;6.912;2023-03-23T10:00:53;14.60;99.90
18597;DHT22;9428;50.950;6.912;2023-03-23T10:03:43;14.50;99.90
18597;DHT22;9428;50.950;6.912;2023-03-23T10:06:31;15.20;99.90
18597;DHT22;9428;50.950;6.912;2023-03-23T10:09:19;14.40;99.90
18597;DHT22;9428;50.950;6.912;2023-03-23T10:12:19;14.50;99.90
18597;DHT22;9428;50.950;6.912;2023-03-23T10:15:13;14.50;99.90
18597;DHT22;9428;50.950;6.912;2023-03-23T10:18:02;14.60;99.90
18597;DHT22;9428;50.950;6.912;2023-03-23T10:20:55;14.70;99.90
18597;DHT22;9428;50.950;6.912;2023-03-23T10:23:55;14.50;99.90
18597;DHT22;9428;50.950;6.912;2023-03-23T10:26:51;14.70;99.90
18597;DHT22;9428;50.950;6.912;2023-03-23T10:29:46;14.60;99.90
18597;DHT22;9428;50.950;6.912;2023-03-23T10:32:42;14.40;99.90
18597;DHT22;9428;50.950;6.912;2023-03-23T10:35:33;14.30;99.90
18597;DHT22;9428;50.950;6.912;2023-03-23T10:38:25;14.20;99.90
18597;DHT22;9428;50.950;6.912;2023-03-23T10:41:16;14.20;99.90
18597;DHT22;9428;50.950;6.912;2023-03-23T10:44:10;14.30;99.90
18597;DHT22;9428;50.950;6.912;2023-03-23T10:47:01;14.30;99.90
18597;DHT22;9428;50.950;6.912;2023-03-23T10:49:51;14.20;99.90
18597;DHT22;9428;50.950;6.912;2023-03-23T10:52:42;14.20;99.90
18597;DHT22;9428;50.950;6.912;2023-03-23T10:55:38;14.30;99.90
18597;DHT22;9428;50.950;6.912;2023-03-23T10:58:27;14.30;99.90
18597;DHT22;9428;50.950;6.912;2023-03-23T11:01:18;14.30;99.90
18597;DHT22;9428;50.950;6.912;2023-03-23T11:04:16;14.50;99.90
18597;DHT22;9428;50.950;6.912;2023-03-23T11:07:05;14.30;99.90
18597;DHT22;9428;50.950;6.912;2023-03-23T11:10:07;14.30;99.90
18597;DHT22;9428;50.950;6.912;2023-03-23T11:13:01;14.40;99.90
18597;DHT22;9428;50.950;6.912;2023-03-23T11:15:50;14.40;99.90
18597;DHT22;9428;50.950;6.912;2023-03-23T11:18:39;14.40;99.90
18597;DHT22;9428;50.950;6.912;2023-03-23T11:21:28;14.50;99.90
18597;DHT22;9428;50.950;6.912;2023-03-23T11:24:15;14.70;99.90
18597;DHT22;9428;50.950;6.912;2023-03-23T11:27:03;14.70;99.90
18597;DHT22;9428;50.950;6.912;2023-03-23T11:29:55;14.70;99.90
18597;DHT22;9428;50.950;6.912;2023-03-23T11:32:44;15.10;99.90
18597;DHT22;9428;50.950;6.912;2023-03-23T11:35:32;15.40;99.90
18597;DHT22;9428;50.950;6.912;2023-03-23T11:38:22;14.60;99.90
18597;DHT22;9428;50.950;6.912;2023-03-23T11:41:12;14.50;99.90
18597;DHT22;9428;50.950;6.912;2023-03-23T11:44:09;15.20;99.90
18597;DHT22;9428;50.950;6.912;2023-03-23T11:47:00;14.60;99.90
18597;DHT22;9428;50.950;6.912;2023-03-23T11:49:55;14.60;99.90
18597;DHT22;9428;50.950;6.912;2023-03-23T11:52:47;14.40;99.90
18597;DHT22;9428;50.950;6.912;2023-03-23T11:55:54;14.50;99.90
18597;DHT22;9428;50.950;6.912;2023-03-23T11:58:43;14.10;99.90
18597;DHT22;9428;50.950;6.912;2023-03-23T12:01:41;14.30;99.90
18597;DHT22;9428;50.950;6.912;2023-03-23T12:07:51;14.30;99.90
18597;DHT22;9428;50.950;6.912;2023-03-23T12:10:47;15.00;99.90
18597;DHT22;9428;50.950;6.912;2023-03-23T12:13:46;14.50;99.90
18597;DHT22;9428;50.950;6.912;2023-03-23T12:16:50;14.50;99.90
18597;DHT22;9428;50.950;6.912;2023-03-23T12:19:46;14.70;99.90
18597;DHT22;9428;50.950;6.912;2023-03-23T12:22:44;14.90;99.90
18597;DHT22;9428;50.950;6.912;2023-03-23T12:29:07;15.30;99.90
18597;DHT22;9428;50.950;6.912;2023-03-23T12:32:08;15.50;99.90
18597;DHT22;9428;50.950;6.912;2023-03-23T12:35:06;15.70;99.90
18597;DHT22;9428;50.950;6.912;2023-03-23T12:38:12;15.40;99.90
18597;DHT22;9428;50.950;6.912;2023-03-23T12:41:08;15.20;99.90
18597;DHT22;9428;50.950;6.912;2023-03-23T12:44:01;15.20;99.90
18597;DHT22;9428;50.950;6.912;2023-03-23T12:47:01;15.20;99.90
18597;DHT22;9428;50.950;6.912;2023-03-23T12:49:54;15.10;99.90
18597;DHT22;9428;50.950;6.912;2023-03-23T12:52:50;15.00;99.90
18597;DHT22;9428;50.950;6.912;2023-03-23T12:55:42;15.00;99.90
18597;DHT22;9428;50.950;6.912;2023-03-23T12:58:36;15.10;99.90
18597;DHT22;9428;50.950;6.912;2023-03-23T13:01:32;15.30;99.90
18597;DHT22;9428;50.950;6.912;2023-03-23T13:04:23;15.30;99.90
18597;DHT22;9428;50.950;6.912;2023-03-23T13:07:16;15.40;99.90
18597;DHT22;9428;50.950;6.912;2023-03-23T13:10:09;15.40;99.90
18597;DHT22;9428;50.950;6.912;2023-03-23T13:12:59;16.20;99.90
18597;DHT22;9428;50.950;6.912;2023-03-23T13:16:01;15.30;99.90
18597;DHT22;9428;50.950;6.912;2023-03-23T13:18:59;15.90;99.90
18597;DHT22;9428;50.950;6.912;2023-03-23T13:21:53;15.40;99.90
18597;DHT22;9428;50.950;6.912;2023-03-23T13:24:50;15.30;99.90
18597;DHT22;9428;50.950;6.912;2023-03-23T13:27:38;15.30;99.90
18597;DHT22;9428;50.950;6.912;2023-03-23T13:30:26;15.20;99.90
18597;DHT22;9428;50.950;6.912;2023-03-23T13:33:15;15.30;99.90
18597;DHT22;9428;50.950;6.912;2023-03-23T13:36:09;15.30;99.90
18597;DHT22;9428;50.950;6.912;2023-03-23T13:38:59;15.20;99.90
18597;DHT22;9428;50.950;6.912;2023-03-23T13:41:48;14.70;99.90
18597;DHT22;9428;50.950;6.912;2023-03-23T13:44:44;14.60;99.90
18597;DHT22;9428;50.950;6.912;2023-03-23T13:47:41;14.50;99.90
18597;DHT22;9428;50.950;6.912;2023-03-23T13:50:30;14.50;99.90
18597;DHT22;9428;50.950;6.912;2023-03-23T13:53:26;14.60;99.90
18597;DHT22;9428;50.950;6.912;2023-03-23T13:56:21;14.80;99.90
18597;DHT22;9428;50.950;6.912;2023-03-23T13:59:14;14.90;99.90
18597;DHT22;9428;50.950;6.912;2023-03-23T14:02:27;15.00;99.90
18597;DHT22;9428;50.950;6.912;2023-03-23T14:05:31;15.90;99.90
18597;DHT22;9428;50.950;6.912;2023-03-23T14:08:25;15.70;99.90
18597;DHT22;9428;50.950;6.912;2023-03-23T14:11:25;15.30;99.90
18597;DHT22;9428;50.950;6.912;2023-03-23T14:14:17;15.30;99.90
18597;DHT22;9428;50.950;6.912;2023-03-23T14:17:06;15.30;99.90
18597;DHT22;9428;50.950;6.912;2023-03-23T14:19:55;15.30;99.90
18597;DHT22;9428;50.950;6.912;2023-03-23T14:22:43;15.30;99.90
18597;DHT22;9428;50.950;6.912;2023-03-23T14:25:32;15.40;99.90
18597;DHT22;9428;50.950;6.912;2023-03-23T14:28:20;15.40;99.90
18597;DHT22;9428;50.950;6.912;2023-03-23T14:31:17;15.20;99.90
18597;DHT22;9428;50.950;6.912;2023-03-23T14:34:13;15.20;99.90
18597;DHT22;9428;50.950;6.912;2023-03-23T14:37:00;15.20;99.90
18597;DHT22;9428;50.950;6.912;2023-03-23T14:39:50;15.10;99.90
18597;DHT22;9428;50.950;6.912;2023-03-23T14:42:40;15.80;99.90
18597;DHT22;9428;50.950;6.912;2023-03-23T14:45:28;15.10;99.90
18597;DHT22;9428;50.950;6.912;2023-03-23T14:48:16;15.10;99.90
18597;DHT22;9428;50.950;6.912;2023-03-23T14:51:04;15.00;99.90
18597;DHT22;9428;50.950;6.912;2023-03-23T14:53:53;14.90;99.90
18597;DHT22;9428;50.950;6.912;2023-03-23T14:56:41;14.90;99.90
18597;DHT22;9428;50.950;6.912;2023-03-23T14:59:30;14.90;99.90
18597;DHT22;9428;50.950;6.912;2023-03-23T15:02:22;15.10;99.90
18597;DHT22;9428;50.950;6.912;2023-03-23T15:05:13;15.50;99.90
18597;DHT22;9428;50.950;6.912;2023-03-23T15:08:05;14.90;99.90
18597;DHT22;9428;50.950;6.912;2023-03-23T15:10:57;15.00;99.90
18597;DHT22;9428;50.950;6.912;2023-03-23T15:13:48;15.20;99.90
18597;DHT22;9428;50.950;6.912;2023-03-23T15:16:37;15.20;99.90
18597;DHT22;9428;50.950;6.912;2023-03-23T15:19:33;15.30;99.90
18597;DHT22;9428;50.950;6.912;2023-03-23T15:22:23;15.40;99.90
18597;DHT22;9428;50.950;6.912;2023-03-23T15:25:18;15.80;99.90
18597;DHT22;9428;50.950;6.912;2023-03-23T15:28:16;15.40;99.90
18597;DHT22;9428;50.950;6.912;2023-03-23T15:31:06;15.50;99.90
18597;DHT22;9428;50.950;6.912;2023-03-23T15:33:59;16.00;99.90
18597;DHT22;9428;50.950;6.912;2023-03-23T15:36:52;15.50;99.90
18597;DHT22;9428;50.950;6.912;2023-03-23T15:39:41;15.50;99.90
18597;DHT22;9428;50.950;6.912;2023-03-23T15:42:30;15.50;99.90
18597;DHT22;9428;50.950;6.912;2023-03-23T15:45:25;15.50;99.90
18597;DHT22;9428;50.950;6.912;2023-03-23T15:48:13;15.50;99.90
18597;DHT22;9428;50.950;6.912;2023-03-23T15:51:04;15.50;99.90
18597;DHT22;9428;50.950;6.912;2023-03-23T15:53:52;15.50;99.90
18597;DHT22;9428;50.950;6.912;2023-03-23T15:56:40;15.70;99.90
18597;DHT22;9428;50.950;6.912;2023-03-23T15:59:27;15.50;99.90
18597;DHT22;9428;50.950;6.912;2023-03-23T16:02:20;15.60;99.90
18597;DHT22;9428;50.950;6.912;2023-03-23T16:05:10;15.50;99.90
18597;DHT22;9428;50.950;6.912;2023-03-23T16:08:00;15.50;99.90
18597;DHT22;9428;50.950;6.912;2023-03-23T16:10:48;15.40;99.90
18597;DHT22;9428;50.950;6.912;2023-03-23T16:13:35;15.40;99.90
18597;DHT22;9428;50.950;6.912;2023-03-23T16:16:27;15.30;99.90
18597;DHT22;9428;50.950;6.912;2023-03-23T16:19:15;15.30;99.90
18597;DHT22;9428;50.950;6.912;2023-03-23T16:22:05;15.30;99.90
18597;DHT22;9428;50.950;6.912;2023-03-23T16:24:53;15.30;99.90
18597;DHT22;9428;50.950;6.912;2023-03-23T16:27:42;15.30;99.90
18597;DHT22;9428;50.950;6.912;2023-03-23T16:30:33;15.30;99.90
18597;DHT22;9428;50.950;6.912;2023-03-23T16:33:20;15.20;99.90
18597;DHT22;9428;50.950;6.912;2023-03-23T16:36:10;15.20;99.90
18597;DHT22;9428;50.950;6.912;2023-03-23T16:38:58;15.20;99.90
18597;DHT22;9428;50.950;6.912;2023-03-23T16:41:46;15.60;99.90
18597;DHT22;9428;50.950;6.912;2023-03-23T16:44:33;15.30;99.90
18597;DHT22;9428;50.950;6.912;2023-03-23T16:47:21;15.50;99.90
18597;DHT22;9428;50.950;6.912;2023-03-23T16:50:11;15.10;99.90
18597;DHT22;9428;50.950;6.912;2023-03-23T16:52:59;15.10;99.90
18597;DHT22;9428;50.950;6.912;2023-03-23T16:55:46;15.10;99.90
18597;DHT22;9428;50.950;6.912;2023-03-23T16:58:35;15.20;99.90
18597;DHT22;9428;50.950;6.912;2023-03-23T17:01:22;15.10;99.90
18597;DHT22;9428;50.950;6.912;2023-03-23T17:04:09;15.10;99.90
18597;DHT22;9428;50.950;6.912;2023-03-23T17:06:57;15.50;99.90
18597;DHT22;9428;50.950;6.912;2023-03-23T17:09:44;14.80;99.90
18597;DHT22;9428;50.950;6.912;2023-03-23T17:12:33;14.90;99.90
18597;DHT22;9428;50.950;6.912;2023-03-23T17:15:21;14.80;99.90
18597;DHT22;9428;50.950;6.912;2023-03-23T17:18:10;14.70;99.90
18597;DHT22;9428;50.950;6.912;2023-03-23T17:20:57;15.60;99.90
18597;DHT22;9428;50.950;6.912;2023-03-23T17:23:45;14.80;99.90
18597;DHT22;9428;50.950;6.912;2023-03-23T17:26:32;14.70;99.90
18597;DHT22;9428;50.950;6.912;2023-03-23T17:29:19;15.00;99.90
18597;DHT22;9428;50.950;6.912;2023-03-23T17:32:09;14.60;99.90
18597;DHT22;9428;50.950;6.912;2023-03-23T17:34:56;14.60;99.90
18597;DHT22;9428;50.950;6.912;2023-03-23T17:37:44;14.60;99.90
18597;DHT22;9428;50.950;6.912;2023-03-23T17:40:31;14.50;99.90
18597;DHT22;9428;50.950;6.912;2023-03-23T17:43:18;14.50;99.90
18597;DHT22;9428;50.950;6.912;2023-03-23T17:46:06;14.40;99.90
18597;DHT22;9428;50.950;6.912;2023-03-23T17:48:55;14.50;99.90
18597;DHT22;9428;50.950;6.912;2023-03-23T17:51:43;14.40;99.90
18597;DHT22;9428;50.950;6.912;2023-03-23T17:54:30;14.30;99.90
18597;DHT22;9428;50.950;6.912;2023-03-23T17:57:18;14.30;99.90
18597;DHT22;9428;50.950;6.912;2023-03-23T18:00:06;14.30;99.90
18597;DHT22;9428;50.950;6.912;2023-03-23T18:02:54;14.40;99.90
18597;DHT22;9428;50.950;6.912;2023-03-23T18:05:42;14.30;99.90
18597;DHT22;9428;50.950;6.912;2023-03-23T18:08:30;14.40;99.90
18597;DHT22;9428;50.950;6.912;2023-03-23T18:11:18;14.30;99.90
18597;DHT22;9428;50.950;6.912;2023-03-23T18:14:05;14.50;99.90
18597;DHT22;9428;50.950;6.912;2023-03-23T18:16:52;14.40;99.90
18597;DHT22;9428;50.950;6.912;2023-03-23T18:19:40;14.30;99.90
18597;DHT22;9428;50.950;6.912;2023-03-23T18:22:28;14.30;99.90